< Typhoon 198931 1989 Season Typhoon 199001 >
Typhoon 198932 (JACK)
General InformationTrack Information on Google MapsDetailed Wind InformationList of All Images || Disaster Info.ResourceGoogle EarthGE AnimationAtom FeedGeoJSON
Detalied Best Track (Time Zone = UTC)
Year Month Day Hour Lat. Long. Pressure (hPa) Wind (kt) Class Image Chart
1989 12 21 18 6.5 156.0 1006 0 2 Image Chart
1989 12 22 00 7.0 155.5 1004 0 2 Image Chart
1989 12 22 06 8.0 155.0 1002 0 2 Image Chart
1989 12 22 12 8.5 154.0 1002 0 2 Image Chart
1989 12 22 18 9.5 153.5 1000 0 2 Image Chart
1989 12 23 00 10.3 152.7 996 40 3 Image Chart
1989 12 23 06 11.0 152.0 992 45 3 Image Chart
1989 12 23 12 11.4 151.5 990 45 3 Image Chart
1989 12 23 18 11.5 150.9 985 50 4 Image Chart
1989 12 24 00 12.2 150.5 980 55 4 Image Chart
1989 12 24 06 12.7 150.2 975 60 4 Image Chart
1989 12 24 12 12.9 149.6 975 60 4 Image Chart
1989 12 24 18 12.9 149.4 970 65 5 Image Chart
1989 12 25 00 12.9 149.0 960 75 5 Image Chart
1989 12 25 06 13.3 148.6 950 80 5 Image Chart
1989 12 25 12 13.7 148.4 940 85 5 Image Chart
1989 12 25 18 13.8 148.2 935 90 5 Image Chart
1989 12 26 00 13.9 148.2 925 95 5 Image Chart
1989 12 26 06 13.9 148.1 925 95 5 Image Chart
1989 12 26 12 13.9 148.3 935 90 5 Image Chart
1989 12 26 18 13.8 148.1 945 85 5 Image Chart
1989 12 27 00 13.8 148.0 960 75 5 Image Chart
1989 12 27 06 13.4 147.9 975 60 4 Image Chart
1989 12 27 12 13.9 147.4 985 55 4 Image Chart
1989 12 27 18 14.4 147.0 994 45 3 Image Chart
1989 12 28 00 15.0 146.0 1004 0 2 Image Chart
1989 12 28 06 14.5 145.5 1008 0 2 Image Chart
Japan Meteorological Agency Best Track Data | Correction Date : 1992-10-21
< Typhoon 198931 1989 Season Typhoon 199001 >

Help